Time;durP1;ratioP1;P1;durP2;ratioP2;P2;SDS_P1;SDS_P2;PMS_P1;PMS_P2;Temp;Humidity;BMP_temperature;BMP_pressure;BME280_temperature;BME280_humidity;BME280_pressure;Samples;Min_cycle;Max_cycle;Signal;HPM_P1;HPM_P2
2023/08/25 00:01:13;;;;;;;13.23;8.93;;;20.90;80.00;;;;;;4953723;28;20130;-80
2023/08/25 00:03:40;;;;;;;12.82;9.10;;;20.90;79.90;;;;;;4970461;28;20502;-79
2023/08/25 00:06:07;;;;;;;12.68;9.70;;;20.90;79.90;;;;;;4954442;28;20075;-80
2023/08/25 00:08:35;;;;;;;12.13;8.93;;;20.90;79.90;;;;;;4970162;28;20063;-79
2023/08/25 00:11:02;;;;;;;11.80;9.40;;;20.80;80.00;;;;;;4953595;28;20051;-80
2023/08/25 00:13:30;;;;;;;11.60;8.95;;;20.80;80.00;;;;;;4969934;28;20102;-79
2023/08/25 00:15:57;;;;;;;11.30;8.30;;;20.80;80.00;;;;;;4969230;28;20082;-79
2023/08/25 00:18:24;;;;;;;13.00;9.30;;;20.70;80.00;;;;;;4970172;28;20154;-80
2023/08/25 00:20:51;;;;;;;12.43;9.93;;;20.70;80.00;;;;;;4969376;28;20543;-79
2023/08/25 00:23:19;;;;;;;14.37;9.47;;;20.70;80.10;;;;;;4969497;28;20059;-79
2023/08/25 00:25:46;;;;;;;13.80;9.50;;;20.60;80.30;;;;;;4953784;28;20071;-79
2023/08/25 00:28:13;;;;;;;11.90;9.43;;;20.60;80.40;;;;;;4970356;28;20494;-79
2023/08/25 00:30:42;;;;;;;12.85;10.02;;;20.60;80.50;;;;;;4969730;28;20051;-79
2023/08/25 00:33:09;;;;;;;13.88;9.93;;;20.60;80.60;;;;;;4953163;28;20130;-79
2023/08/25 00:35:38;;;;;;;12.80;9.40;;;20.60;80.60;;;;;;4970510;28;20050;-79
2023/08/25 00:38:05;;;;;;;14.02;10.25;;;20.50;80.70;;;;;;4941144;28;20058;-79
2023/08/25 00:40:36;;;;;;;12.38;9.93;;;20.50;80.80;;;;;;4950575;28;20160;-79
2023/08/25 00:43:03;;;;;;;14.77;9.30;;;20.50;80.80;;;;;;4950637;28;20052;-79
2023/08/25 00:45:33;;;;;;;13.40;10.68;;;20.50;81.00;;;;;;4934291;28;20055;-79
2023/08/25 00:48:04;;;;;;;14.67;10.27;;;20.50;81.20;;;;;;4933833;28;20529;-79
2023/08/25 00:50:31;;;;;;;15.88;11.25;;;20.50;81.30;;;;;;4966249;28;20059;-79
2023/08/25 00:53:00;;;;;;;14.32;10.85;;;20.40;81.50;;;;;;4969535;28;20082;-79
2023/08/25 00:55:27;;;;;;;14.77;10.52;;;20.50;81.80;;;;;;4969057;28;20394;-79
2023/08/25 00:57:55;;;;;;;12.75;10.50;;;20.40;81.70;;;;;;4968412;28;20067;-79
2023/08/25 01:00:23;;;;;;;14.77;11.10;;;20.40;81.80;;;;;;4968381;28;20059;-79
2023/08/25 01:02:53;;;;;;;15.77;11.55;;;20.40;82.00;;;;;;4968535;28;20529;-79
2023/08/25 01:05:22;;;;;;;15.27;11.52;;;20.40;82.30;;;;;;4970106;28;20818;-79
2023/08/25 01:07:49;;;;;;;15.25;11.10;;;20.40;82.30;;;;;;4968929;28;20054;-79
2023/08/25 01:10:17;;;;;;;14.30;10.93;;;20.40;82.40;;;;;;4968619;28;20164;-79
2023/08/25 01:12:54;;;;;;;16.07;11.57;;;20.40;82.60;;;;;;4968811;28;20534;-79
2023/08/25 01:15:27;;;;;;;16.50;11.73;;;20.30;82.70;;;;;;4969273;28;20154;-79
2023/08/25 01:18:02;;;;;;;14.95;11.50;;;20.30;82.80;;;;;;4969130;28;20052;-80
2023/08/25 01:20:32;;;;;;;15.82;11.95;;;20.30;83.00;;;;;;4968918;28;20059;-79
2023/08/25 01:23:15;;;;;;;15.80;11.35;;;20.30;83.10;;;;;;4969072;28;20059;-79
2023/08/25 01:25:45;;;;;;;18.23;11.97;;;20.30;83.10;;;;;;4968243;28;20114;-79
2023/08/25 01:28:12;;;;;;;15.82;12.25;;;20.30;83.10;;;;;;4968875;28;20107;-79
2023/08/25 01:30:39;;;;;;;16.05;12.18;;;20.30;83.20;;;;;;4952662;28;20557;-80
2023/08/25 01:33:06;;;;;;;16.77;12.57;;;20.30;83.30;;;;;;4968666;28;20055;-79
2023/08/25 01:35:47;;;;;;;18.33;12.70;;;20.30;83.40;;;;;;4968639;28;20186;-79
2023/08/25 01:38:21;;;;;;;16.40;12.43;;;20.30;83.50;;;;;;4968726;28;20537;-80
2023/08/25 01:40:55;;;;;;;16.90;12.27;;;20.30;83.40;;;;;;4952754;28;20166;-80
2023/08/25 01:43:25;;;;;;;18.60;12.30;;;20.30;83.50;;;;;;4970607;28;20138;-79
2023/08/25 01:45:54;;;;;;;16.17;12.32;;;20.30;83.40;;;;;;4952786;28;20061;-80
2023/08/25 01:48:23;;;;;;;18.27;13.05;;;20.30;83.50;;;;;;4968437;28;20158;-79
2023/08/25 01:50:51;;;;;;;18.73;13.23;;;20.30;83.50;;;;;;4967698;28;20102;-80
2023/08/25 01:53:20;;;;;;;16.15;12.82;;;20.30;83.50;;;;;;4967515;28;20517;-79
2023/08/25 01:55:47;;;;;;;18.88;13.75;;;20.30;83.50;;;;;;4984294;28;20062;-79
2023/08/25 01:58:17;;;;;;;18.85;12.82;;;20.30;83.60;;;;;;4952036;28;20059;-79
2023/08/25 02:00:44;;;;;;;18.40;14.23;;;20.30;83.50;;;;;;4966387;28;20048;-79
2023/08/25 02:03:13;;;;;;;20.00;14.50;;;20.30;83.50;;;;;;4966799;28;20998;-79
2023/08/25 02:05:41;;;;;;;20.13;14.05;;;20.30;83.60;;;;;;4950790;28;21240;-79
2023/08/25 02:08:08;;;;;;;20.70;15.20;;;20.30;83.60;;;;;;4966921;28;20118;-79
2023/08/25 02:10:35;;;;;;;22.08;15.48;;;20.30;83.70;;;;;;4966807;28;20078;-79
2023/08/25 02:13:03;;;;;;;20.92;15.80;;;20.30;83.70;;;;;;4950136;28;20051;-79
2023/08/25 02:15:31;;;;;;;22.60;16.50;;;20.30;83.90;;;;;;4968054;28;20043;-79
2023/08/25 02:17:58;;;;;;;20.65;16.10;;;20.30;84.10;;;;;;4951910;28;20075;-79
2023/08/25 02:20:26;;;;;;;23.63;16.17;;;20.30;84.00;;;;;;4951885;28;20090;-79
2023/08/25 02:22:53;;;;;;;22.50;16.10;;;20.30;84.10;;;;;;4952054;28;20062;-79
2023/08/25 02:25:20;;;;;;;22.08;16.38;;;20.30;84.00;;;;;;4951707;28;20568;-79
2023/08/25 02:27:47;;;;;;;23.90;17.03;;;20.20;84.00;;;;;;4952453;28;20130;-79
2023/08/25 02:30:14;;;;;;;23.52;16.17;;;20.20;84.00;;;;;;4951741;28;20051;-79
2023/08/25 02:32:44;;;;;;;23.05;16.52;;;20.20;84.00;;;;;;4968158;28;20055;-79
2023/08/25 02:35:11;;;;;;;25.10;16.17;;;20.20;84.10;;;;;;4951803;28;20102;-79
2023/08/25 02:37:57;;;;;;;24.38;18.13;;;20.20;84.00;;;;;;4967637;28;20507;-79
2023/08/25 02:40:25;;;;;;;26.40;17.37;;;20.20;84.10;;;;;;4983826;28;20051;-79
2023/08/25 02:42:53;;;;;;;25.05;17.73;;;20.10;84.20;;;;;;4951379;28;20426;-79
2023/08/25 02:45:22;;;;;;;24.42;17.42;;;20.20;84.30;;;;;;4967750;28;20098;-79
2023/08/25 02:47:51;;;;;;;24.83;16.98;;;20.20;84.40;;;;;;4951779;28;20055;-79
2023/08/25 02:50:19;;;;;;;25.83;18.83;;;20.20;84.40;;;;;;4951251;28;20055;-79
2023/08/25 02:52:46;;;;;;;27.43;19.67;;;20.10;84.50;;;;;;4983701;28;20490;-80
2023/08/25 02:55:16;;;;;;;25.90;18.88;;;20.10;84.50;;;;;;4951604;28;20106;-79
2023/08/25 02:57:43;;;;;;;27.30;18.02;;;20.10;84.50;;;;;;4951386;28;20058;-79
2023/08/25 03:00:12;;;;;;;23.25;17.58;;;20.10;84.50;;;;;;4967599;28;20071;-79
2023/08/25 03:02:39;;;;;;;25.55;18.25;;;20.10;84.40;;;;;;4951006;28;20126;-79
2023/08/25 03:05:10;;;;;;;24.10;16.83;;;20.10;84.50;;;;;;4967805;28;20062;-79
2023/08/25 03:07:37;;;;;;;25.50;18.02;;;20.10;84.40;;;;;;4967747;28;20454;-79
2023/08/25 03:10:05;;;;;;;26.25;18.00;;;20.10;84.30;;;;;;4951708;28;20272;-79
2023/08/25 03:12:33;;;;;;;26.17;17.63;;;20.10;84.40;;;;;;4951130;28;20575;-80
2023/08/25 03:15:00;;;;;;;23.92;16.92;;;20.10;84.30;;;;;;4951155;28;20552;-79
2023/08/25 03:17:28;;;;;;;25.40;17.57;;;20.10;84.30;;;;;;4951411;28;20497;-80
2023/08/25 03:19:55;;;;;;;24.42;17.58;;;20.00;84.30;;;;;;4966984;28;20048;-80
2023/08/25 03:22:24;;;;;;;25.55;17.70;;;20.00;84.20;;;;;;4967058;28;20496;-79
2023/08/25 03:24:52;;;;;;;24.65;17.15;;;20.00;84.30;;;;;;4967457;28;20134;-80
2023/08/25 03:27:19;;;;;;;25.13;16.77;;;20.00;84.20;;;;;;4950901;28;20059;-80
2023/08/25 03:29:46;;;;;;;26.90;17.23;;;20.00;84.30;;;;;;4951033;28;20127;-79
2023/08/25 03:32:14;;;;;;;22.85;17.27;;;20.00;84.30;;;;;;4950702;28;20454;-80
2023/08/25 03:34:41;;;;;;;25.95;17.30;;;20.00;84.40;;;;;;4968772;28;20141;-80
2023/08/25 03:37:08;;;;;;;25.50;17.40;;;20.00;84.40;;;;;;4967171;28;20565;-79
2023/08/25 03:39:37;;;;;;;24.77;17.25;;;20.00;84.40;;;;;;4951134;28;21061;-79
2023/08/25 03:42:06;;;;;;;25.07;17.10;;;19.90;84.40;;;;;;4950932;28;20051;-79
2023/08/25 03:44:33;;;;;;;25.08;16.77;;;19.90;84.30;;;;;;4967156;28;20107;-79
2023/08/25 03:47:00;;;;;;;24.70;16.67;;;19.90;84.30;;;;;;4951229;28;20055;-80
2023/08/25 03:49:30;;;;;;;23.88;16.65;;;19.90;84.30;;;;;;4951182;28;20134;-79
2023/08/25 03:51:58;;;;;;;25.50;17.55;;;19.90;84.40;;;;;;4953791;28;20058;-80
2023/08/25 03:54:27;;;;;;;25.73;16.97;;;19.90;84.40;;;;;;4970311;28;20052;-79
2023/08/25 03:56:55;;;;;;;24.85;16.63;;;19.80;84.50;;;;;;4970318;28;20054;-80
2023/08/25 03:59:22;;;;;;;23.50;16.65;;;19.80;84.50;;;;;;4954029;28;20054;-79
2023/08/25 04:01:49;;;;;;;26.05;17.92;;;19.70;84.60;;;;;;4970171;28;20798;-80
2023/08/25 04:04:17;;;;;;;26.80;18.48;;;19.70;84.70;;;;;;4970122;28;21063;-79
2023/08/25 04:06:44;;;;;;;27.40;17.87;;;19.70;84.90;;;;;;4954165;28;20138;-79
2023/08/25 04:09:13;;;;;;;26.63;18.05;;;19.70;85.00;;;;;;4953691;28;20051;-79
2023/08/25 04:11:40;;;;;;;29.95;19.17;;;19.70;85.00;;;;;;4953436;28;20492;-80
2023/08/25 04:14:09;;;;;;;25.98;18.10;;;19.70;85.00;;;;;;4969773;28;20451;-80
2023/08/25 04:16:37;;;;;;;27.55;18.98;;;19.70;85.10;;;;;;4953700;28;20082;-80
2023/08/25 04:19:04;;;;;;;31.00;18.53;;;19.70;85.20;;;;;;4985961;28;20054;-79
2023/08/25 04:21:34;;;;;;;28.70;18.23;;;19.70;85.20;;;;;;4953144;28;20051;-80
2023/08/25 04:24:01;;;;;;;28.65;19.00;;;19.70;85.30;;;;;;4953303;28;20522;-79
2023/08/25 04:26:28;;;;;;;32.05;19.70;;;19.70;85.30;;;;;;4969052;28;20054;-80
2023/08/25 04:28:55;;;;;;;35.40;22.33;;;19.70;85.40;;;;;;4943519;28;20047;-80
2023/08/25 04:31:25;;;;;;;31.73;20.07;;;19.70;85.50;;;;;;4956224;28;20062;-79
2023/08/25 04:33:57;;;;;;;33.35;20.55;;;19.70;85.70;;;;;;4953649;28;20058;-80
2023/08/25 04:36:24;;;;;;;39.53;23.05;;;19.70;85.70;;;;;;4969786;28;20051;-80
2023/08/25 04:38:51;;;;;;;38.92;22.58;;;19.70;85.80;;;;;;4953202;28;20051;-80
2023/08/25 04:41:20;;;;;;;34.75;21.45;;;19.70;86.00;;;;;;4969630;28;20055;-79
2023/08/25 04:43:47;;;;;;;33.60;20.67;;;19.70;85.80;;;;;;4953509;28;20208;-79
2023/08/25 04:46:14;;;;;;;38.10;21.98;;;19.70;85.80;;;;;;4953512;28;20157;-80
2023/08/25 04:48:46;;;;;;;37.63;22.25;;;19.70;85.80;;;;;;4950031;28;20048;-79
2023/08/25 04:51:14;;;;;;;36.85;22.80;;;19.60;85.80;;;;;;4933437;28;20099;-79
2023/08/25 04:53:41;;;;;;;38.83;22.88;;;19.60;85.90;;;;;;4949721;28;20059;-80
2023/08/25 04:56:08;;;;;;;34.60;22.97;;;19.60;86.00;;;;;;4950043;28;20063;-79
2023/08/25 04:58:35;;;;;;;36.88;23.77;;;19.60;86.00;;;;;;4934207;28;20063;-79
2023/08/25 05:01:03;;;;;;;38.10;23.00;;;19.60;86.10;;;;;;4933812;28;20134;-80
2023/08/25 05:03:31;;;;;;;35.20;21.98;;;19.60;86.00;;;;;;4933255;28;20056;-80
2023/08/25 05:06:00;;;;;;;38.55;22.85;;;19.60;86.00;;;;;;4933375;28;20578;-80
2023/08/25 05:08:30;;;;;;;36.13;22.20;;;19.60;86.00;;;;;;4944464;28;20150;-80
2023/08/25 05:10:57;;;;;;;37.65;23.55;;;19.60;86.10;;;;;;4953050;28;20051;-80
2023/08/25 05:13:25;;;;;;;36.35;22.42;;;19.60;86.10;;;;;;4952695;28;20106;-80
2023/08/25 05:15:52;;;;;;;37.22;22.05;;;19.60;86.00;;;;;;4952764;28;20105;-79
2023/08/25 05:18:34;;;;;;;34.50;21.50;;;19.60;86.10;;;;;;4952880;28;20047;-80
2023/08/25 05:21:03;;;;;;;37.73;22.90;;;19.60;86.00;;;;;;4968830;28;20498;-79
2023/08/25 05:23:32;;;;;;;41.83;23.23;;;19.60;85.90;;;;;;4952331;28;20051;-79
2023/08/25 05:26:00;;;;;;;43.83;23.92;;;19.50;86.10;;;;;;4953056;28;20173;-79
2023/08/25 05:28:27;;;;;;;42.03;24.75;;;19.50;86.10;;;;;;4968829;28;20061;-79
2023/08/25 05:30:55;;;;;;;41.15;25.60;;;19.50;86.30;;;;;;4952330;28;20588;-79
2023/08/25 05:33:32;;;;;;;41.20;24.30;;;19.50;86.50;;;;;;4952206;28;20111;-79
2023/08/25 05:36:18;;;;;;;39.08;23.75;;;19.50;86.50;;;;;;4946007;28;20065;-79
2023/08/25 05:38:45;;;;;;;41.30;23.95;;;19.50;86.60;;;;;;4952538;28;20134;-79
2023/08/25 05:41:12;;;;;;;40.72;23.88;;;19.50;86.60;;;;;;4951715;28;20059;-79
2023/08/25 05:43:39;;;;;;;42.83;25.25;;;19.50;86.80;;;;;;4952326;28;20111;-80
2023/08/25 05:46:06;;;;;;;45.47;25.07;;;19.50;86.80;;;;;;4968639;28;20055;-80
2023/08/25 05:48:40;;;;;;;39.78;23.60;;;19.50;87.20;;;;;;4967600;28;20227;-82
2023/08/25 05:51:07;;;;;;;43.95;25.90;;;19.50;87.20;;;;;;4951969;28;20561;-81
2023/08/25 05:53:35;;;;;;;42.75;24.83;;;19.50;87.10;;;;;;4967019;28;20154;-77
2023/08/25 05:56:03;;;;;;;45.38;25.17;;;19.50;87.30;;;;;;4966808;28;20051;-77
2023/08/25 05:58:30;;;;;;;40.13;23.20;;;19.50;87.40;;;;;;4966611;28;20160;-77
2023/08/25 06:00:58;;;;;;;40.85;22.15;;;19.50;87.50;;;;;;4966746;28;20055;-77
2023/08/25 06:03:26;;;;;;;40.47;24.15;;;19.50;87.70;;;;;;4967255;28;20054;-77
2023/08/25 06:05:53;;;;;;;41.63;24.30;;;19.50;87.50;;;;;;4966953;28;20829;-78
2023/08/25 06:08:21;;;;;;;38.33;21.73;;;19.50;87.70;;;;;;4966324;28;20130;-77
2023/08/25 06:10:51;;;;;;;32.53;19.67;;;19.50;87.80;;;;;;4952818;28;20073;-78
2023/08/25 06:13:19;;;;;;;38.08;22.70;;;19.50;87.80;;;;;;4967638;28;20106;-77
2023/08/25 06:15:46;;;;;;;36.97;22.38;;;19.50;87.70;;;;;;4966240;28;20055;-78
2023/08/25 06:18:13;;;;;;;35.45;21.38;;;19.50;87.80;;;;;;4967076;28;20047;-78
2023/08/25 06:20:41;;;;;;;28.73;18.55;;;19.50;87.80;;;;;;4972595;28;20054;-78
2023/08/25 06:23:08;;;;;;;42.13;23.77;;;19.50;87.80;;;;;;4967932;28;20051;-77
2023/08/25 06:25:36;;;;;;;42.20;24.25;;;19.60;87.80;;;;;;4972742;28;20055;-77
2023/08/25 06:28:05;;;;;;;40.60;23.88;;;19.60;88.00;;;;;;4968488;28;20051;-77
2023/08/25 06:30:33;;;;;;;34.65;21.48;;;19.60;88.00;;;;;;4965455;28;20055;-77
2023/08/25 06:33:00;;;;;;;38.35;23.33;;;19.60;87.90;;;;;;4973527;28;20051;-80
2023/08/25 06:35:29;;;;;;;32.17;18.93;;;19.70;87.90;;;;;;4950819;28;20164;-76
2023/08/25 06:37:56;;;;;;;39.60;23.95;;;19.70;88.00;;;;;;4965519;28;20055;-73
2023/08/25 06:40:23;;;;;;;36.63;21.65;;;19.70;88.00;;;;;;4964368;28;20158;-74
2023/08/25 06:42:50;;;;;;;39.25;23.20;;;19.70;87.90;;;;;;4960719;28;20071;-75
2023/08/25 06:45:19;;;;;;;31.15;19.40;;;19.70;88.00;;;;;;4961113;28;20904;-78
2023/08/25 06:47:49;;;;;;;33.43;20.47;;;19.70;88.00;;;;;;4963593;28;20048;-75
2023/08/25 06:50:17;;;;;;;36.45;21.33;;;19.70;87.90;;;;;;4965205;28;20062;-74
2023/08/25 06:52:44;;;;;;;40.15;22.88;;;19.80;87.90;;;;;;4956175;28;20137;-76
2023/08/25 06:55:11;;;;;;;42.88;23.77;;;19.90;87.90;;;;;;4949804;28;20086;-78
2023/08/25 06:57:39;;;;;;;33.63;21.00;;;19.90;87.90;;;;;;4946384;28;20530;-77
2023/08/25 07:00:08;;;;;;;39.03;23.10;;;19.90;87.90;;;;;;4965487;28;21127;-76
2023/08/25 07:02:39;;;;;;;41.90;25.65;;;19.90;87.90;;;;;;4967375;28;20130;-76
2023/08/25 07:05:06;;;;;;;41.88;25.23;;;19.90;88.00;;;;;;4956550;28;20051;-74
2023/08/25 07:07:35;;;;;;;39.55;23.67;;;20.00;88.00;;;;;;4947962;28;20134;-77
2023/08/25 07:10:02;;;;;;;42.80;24.92;;;20.00;88.10;;;;;;4958843;28;20043;-73
2023/08/25 07:12:29;;;;;;;39.93;24.63;;;20.00;88.20;;;;;;4951181;28;20246;-75
2023/08/25 07:14:57;;;;;;;42.53;25.40;;;20.00;88.20;;;;;;4950947;28;20051;-75
2023/08/25 07:17:24;;;;;;;41.47;23.92;;;20.10;88.20;;;;;;4968612;28;20154;-74
2023/08/25 07:19:53;;;;;;;41.65;24.92;;;20.10;88.10;;;;;;4950589;28;20055;-75
2023/08/25 07:22:20;;;;;;;41.65;24.55;;;20.20;88.20;;;;;;4959565;28;20047;-74
2023/08/25 07:24:50;;;;;;;44.27;25.40;;;20.20;88.00;;;;;;4972291;28;20050;-74
2023/08/25 07:27:17;;;;;;;33.85;20.88;;;20.30;88.10;;;;;;4971560;28;20052;-77
2023/08/25 07:29:44;;;;;;;43.15;24.75;;;20.30;87.90;;;;;;4953687;28;20047;-79
2023/08/25 07:32:12;;;;;;;37.38;21.90;;;20.30;87.90;;;;;;4968780;28;20138;-77
2023/08/25 07:34:39;;;;;;;45.13;25.10;;;20.40;87.80;;;;;;4970476;28;20067;-76
2023/08/25 07:37:06;;;;;;;34.70;20.87;;;20.50;87.80;;;;;;4968874;28;20508;-76
2023/08/25 07:39:33;;;;;;;31.17;19.60;;;20.50;87.70;;;;;;4977041;28;20971;-77
2023/08/25 07:42:01;;;;;;;40.22;23.10;;;20.50;87.60;;;;;;4961457;28;20055;-77
2023/08/25 07:44:28;;;;;;;35.17;21.65;;;20.50;87.50;;;;;;4954638;28;20103;-78
2023/08/25 07:46:55;;;;;;;37.55;21.45;;;20.50;87.30;;;;;;4966108;28;20155;-76
2023/08/25 07:49:22;;;;;;;37.40;21.83;;;20.50;87.40;;;;;;4960450;28;20412;-77
2023/08/25 07:51:49;;;;;;;38.78;22.30;;;20.50;87.20;;;;;;4965805;28;20138;-78
2023/08/25 07:54:17;;;;;;;36.30;22.10;;;20.60;87.20;;;;;;4950153;28;21027;-81
2023/08/25 07:56:44;;;;;;;37.33;22.90;;;20.60;86.90;;;;;;4949745;28;20071;-77
2023/08/25 07:59:11;;;;;;;41.78;24.15;;;20.60;86.90;;;;;;4934911;28;20144;-76
2023/08/25 08:01:40;;;;;;;36.13;22.73;;;20.60;87.00;;;;;;4954315;28;20070;-76
2023/08/25 08:04:07;;;;;;;45.70;24.77;;;20.70;86.90;;;;;;4968738;28;20066;-77
2023/08/25 08:06:35;;;;;;;36.45;20.92;;;20.70;86.80;;;;;;4970763;28;20106;-76
2023/08/25 08:09:03;;;;;;;38.03;22.13;;;20.70;86.70;;;;;;4988941;28;20051;-76
2023/08/25 08:11:31;;;;;;;39.58;23.65;;;20.70;86.60;;;;;;4956932;28;20142;-76
2023/08/25 08:13:58;;;;;;;33.67;20.13;;;20.80;86.60;;;;;;4967595;28;20793;-76
2023/08/25 08:16:30;;;;;;;36.20;21.15;;;20.80;86.60;;;;;;4973116;28;20143;-77
2023/08/25 08:18:59;;;;;;;37.45;22.05;;;20.80;86.40;;;;;;4964254;28;20750;-77
2023/08/25 08:21:26;;;;;;;39.50;22.95;;;20.90;86.40;;;;;;4962948;28;20054;-77
2023/08/25 08:23:54;;;;;;;39.13;23.17;;;20.90;86.30;;;;;;4977116;28;20046;-77
2023/08/25 08:26:22;;;;;;;35.73;21.37;;;21.00;86.00;;;;;;4970144;28;20173;-78
2023/08/25 08:28:50;;;;;;;31.95;19.10;;;21.00;85.70;;;;;;4969210;28;20082;-77
2023/08/25 08:31:18;;;;;;;31.10;18.55;;;21.00;85.40;;;;;;4968862;28;20130;-77
2023/08/25 08:33:46;;;;;;;33.47;19.08;;;21.00;85.50;;;;;;4972730;28;20061;-77
2023/08/25 08:36:15;;;;;;;31.92;19.02;;;21.00;85.50;;;;;;4975175;28;20522;-77
2023/08/25 08:38:42;;;;;;;34.27;20.47;;;21.00;85.30;;;;;;4969169;28;20822;-77
2023/08/25 08:41:11;;;;;;;32.20;20.33;;;21.10;85.20;;;;;;4965735;28;20902;-78
2023/08/25 08:43:42;;;;;;;28.65;17.55;;;21.10;85.10;;;;;;4947363;28;20051;-78
2023/08/25 08:46:13;;;;;;;29.20;19.30;;;21.10;84.90;;;;;;4965654;28;20059;-78
2023/08/25 08:48:41;;;;;;;30.38;19.20;;;21.10;84.80;;;;;;4970443;28;20043;-78
2023/08/25 08:51:09;;;;;;;30.03;17.63;;;21.10;84.70;;;;;;4968248;28;20087;-78
2023/08/25 08:53:38;;;;;;;30.35;18.17;;;21.10;84.50;;;;;;5000221;23;20050;-75
2023/08/25 08:56:07;;;;;;;34.05;21.20;;;21.10;84.40;;;;;;4963328;28;20533;-75
2023/08/25 08:58:35;;;;;;;30.83;17.88;;;21.20;84.30;;;;;;4965386;28;20086;-75
2023/08/25 09:01:03;;;;;;;26.88;15.98;;;21.20;84.20;;;;;;4967301;28;20047;-75
2023/08/25 09:03:34;;;;;;;28.80;17.80;;;21.20;84.10;;;;;;4964742;28;20074;-75
2023/08/25 09:06:03;;;;;;;27.67;17.83;;;21.30;84.00;;;;;;4969311;28;20615;-75
2023/08/25 09:08:31;;;;;;;29.13;18.40;;;21.30;84.00;;;;;;4964750;28;20055;-75
2023/08/25 09:11:00;;;;;;;25.90;17.27;;;21.30;83.90;;;;;;4967781;28;20146;-75
2023/08/25 09:13:27;;;;;;;30.05;17.73;;;21.30;83.80;;;;;;4968113;28;20055;-75
2023/08/25 09:15:55;;;;;;;29.87;16.73;;;21.30;83.70;;;;;;4968453;28;20150;-78
2023/08/25 09:18:22;;;;;;;31.70;19.40;;;21.30;83.60;;;;;;4966899;28;20062;-78
2023/08/25 09:20:51;;;;;;;31.27;19.10;;;21.40;83.60;;;;;;4966008;28;20055;-77
2023/08/25 09:23:18;;;;;;;30.88;18.65;;;21.40;83.50;;;;;;4950369;28;20134;-78
2023/08/25 09:25:45;;;;;;;33.08;20.15;;;21.40;83.30;;;;;;4965107;28;20085;-78
2023/08/25 09:28:12;;;;;;;34.60;19.93;;;21.40;83.30;;;;;;4968342;28;20057;-78
2023/08/25 09:30:41;;;;;;;30.88;19.73;;;21.40;83.30;;;;;;4975219;28;20059;-77
2023/08/25 09:33:13;;;;;;;31.80;20.35;;;21.40;83.40;;;;;;4960513;28;20063;-78
2023/08/25 09:35:41;;;;;;;31.08;19.00;;;21.40;83.30;;;;;;4968077;28;20086;-77
2023/08/25 09:38:21;;;;;;;32.63;20.00;;;21.40;83.30;;;;;;4975268;28;21248;-78
2023/08/25 09:40:48;;;;;;;38.40;19.80;;;21.40;83.20;;;;;;4960563;28;20051;-78
2023/08/25 09:43:15;;;;;;;27.67;16.75;;;21.40;83.10;;;;;;4965819;28;20071;-78
2023/08/25 09:45:42;;;;;;;31.55;17.38;;;21.40;83.10;;;;;;4965114;28;20166;-78
2023/08/25 09:48:11;;;;;;;27.10;17.50;;;21.40;83.10;;;;;;4967512;28;20595;-78
2023/08/25 09:50:39;;;;;;;28.38;17.67;;;21.50;83.10;;;;;;4963994;28;20134;-77
2023/08/25 09:53:07;;;;;;;34.23;21.40;;;21.50;83.00;;;;;;4961397;28;20918;-77
2023/08/25 09:55:38;;;;;;;37.92;21.77;;;21.50;83.00;;;;;;4981610;28;20857;-78
2023/08/25 09:58:06;;;;;;;34.55;19.48;;;21.50;83.00;;;;;;4967772;28;20405;-78
2023/08/25 10:00:34;;;;;;;30.63;18.45;;;21.50;82.90;;;;;;4969167;28;20199;-78
2023/08/25 10:03:03;;;;;;;34.85;20.70;;;21.50;83.00;;;;;;4958366;28;20059;-78
2023/08/25 10:05:33;;;;;;;37.43;21.47;;;21.50;83.00;;;;;;4957323;28;20060;-77
2023/08/25 10:08:00;;;;;;;34.65;20.40;;;21.50;83.00;;;;;;4967031;28;20082;-78
2023/08/25 10:10:31;;;;;;;34.95;20.65;;;21.50;82.90;;;;;;4961109;28;20818;-77
2023/08/25 10:13:00;;;;;;;34.55;20.83;;;21.50;83.10;;;;;;4963362;28;20055;-77
2023/08/25 10:15:30;;;;;;;35.20;21.20;;;21.60;83.10;;;;;;4964500;28;20158;-78
2023/08/25 10:18:02;;;;;;;32.90;20.63;;;21.60;82.80;;;;;;4964537;28;20047;-77
2023/08/25 10:20:30;;;;;;;31.42;18.67;;;21.60;82.70;;;;;;4960127;28;20044;-78
2023/08/25 10:23:08;;;;;;;30.73;19.10;;;21.70;82.70;;;;;;4958916;28;20050;-77
2023/08/25 10:25:37;;;;;;;29.80;18.15;;;21.70;82.80;;;;;;4960320;28;20809;-77
2023/08/25 10:28:08;;;;;;;30.08;17.90;;;21.70;82.90;;;;;;4962517;28;20885;-77
2023/08/25 10:30:36;;;;;;;34.07;20.20;;;21.70;82.90;;;;;;4944514;28;20589;-77
2023/08/25 10:33:09;;;;;;;30.83;18.65;;;21.70;82.90;;;;;;4968216;28;20051;-77
2023/08/25 10:35:44;;;;;;;30.23;18.80;;;21.70;82.80;;;;;;4963408;28;20048;-77
2023/08/25 10:38:44;;;;;;;27.77;17.60;;;21.90;83.00;;;;;;4966096;28;20074;-78
2023/08/25 10:41:13;;;;;;;26.88;16.95;;;21.90;82.80;;;;;;4930597;28;20044;-77
2023/08/25 10:43:47;;;;;;;22.57;14.60;;;21.90;82.80;;;;;;4963301;28;20047;-78
2023/08/25 10:46:15;;;;;;;21.63;13.52;;;22.00;82.20;;;;;;4963868;28;20107;-77
2023/08/25 10:48:43;;;;;;;25.60;14.18;;;22.00;82.10;;;;;;4949184;28;20961;-78
2023/08/25 10:51:13;;;;;;;21.55;14.43;;;22.00;82.00;;;;;;4949600;28;20051;-78
2023/08/25 10:53:44;;;;;;;22.92;13.82;;;22.10;81.70;;;;;;4979061;28;20064;-78
2023/08/25 10:56:22;;;;;;;23.73;13.50;;;22.10;81.70;;;;;;4952102;28;20044;-77
2023/08/25 10:58:59;;;;;;;22.95;13.30;;;22.20;81.50;;;;;;4968014;28;20146;-77
2023/08/25 11:01:28;;;;;;;20.27;12.93;;;22.20;81.10;;;;;;4971022;28;20078;-77
2023/08/25 11:04:07;;;;;;;18.38;10.98;;;22.20;81.00;;;;;;4972236;28;20156;-77
2023/08/25 11:06:42;;;;;;;16.73;10.15;;;22.20;80.80;;;;;;4959368;28;20913;-77
2023/08/25 11:09:12;;;;;;;19.37;10.77;;;22.20;80.50;;;;;;4970294;28;20114;-77
2023/08/25 11:11:42;;;;;;;17.65;9.70;;;22.20;80.30;;;;;;4954279;28;20052;-77
2023/08/25 11:14:11;;;;;;;15.38;10.00;;;22.20;80.30;;;;;;4981855;28;20099;-77
2023/08/25 11:16:39;;;;;;;14.73;8.90;;;22.30;80.30;;;;;;4954819;28;20060;-77
2023/08/25 11:19:09;;;;;;;14.38;9.25;;;22.30;80.30;;;;;;4975453;28;20055;-77
2023/08/25 11:21:37;;;;;;;19.87;9.83;;;22.30;80.00;;;;;;4961806;28;20054;-77
2023/08/25 11:24:04;;;;;;;13.73;8.40;;;22.30;79.90;;;;;;4976326;28;20570;-77
2023/08/25 11:26:34;;;;;;;18.20;8.55;;;22.30;79.90;;;;;;4997249;28;20062;-77
2023/08/25 11:29:02;;;;;;;12.15;7.78;;;22.40;80.00;;;;;;4968514;28;20059;-77
2023/08/25 11:31:31;;;;;;;11.88;7.03;;;22.40;79.70;;;;;;4962218;28;20047;-78
2023/08/25 11:33:58;;;;;;;14.77;8.53;;;22.50;79.50;;;;;;4973008;28;20129;-77
2023/08/25 11:36:26;;;;;;;13.95;8.63;;;22.50;79.30;;;;;;4945632;28;20048;-78
2023/08/25 11:38:54;;;;;;;17.48;9.75;;;22.50;79.20;;;;;;4961678;28;20495;-78
2023/08/25 11:41:23;;;;;;;13.90;9.65;;;22.50;79.20;;;;;;4976917;28;20141;-78
2023/08/25 11:43:50;;;;;;;19.75;12.48;;;22.50;79.00;;;;;;4966271;28;20054;-78
2023/08/25 11:46:17;;;;;;;22.57;13.80;;;22.50;79.00;;;;;;4982423;28;21082;-78
2023/08/25 11:48:49;;;;;;;17.23;11.82;;;22.50;78.90;;;;;;4964240;28;20122;-78
2023/08/25 11:51:17;;;;;;;19.92;14.18;;;22.50;78.90;;;;;;4958774;28;21044;-78
2023/08/25 11:53:45;;;;;;;18.77;13.45;;;22.50;78.90;;;;;;4969495;28;21113;-77
2023/08/25 11:56:15;;;;;;;22.20;15.05;;;22.50;78.90;;;;;;4952491;28;20643;-78
2023/08/25 11:58:43;;;;;;;21.37;14.43;;;22.50;79.00;;;;;;4952309;28;20551;-77
2023/08/25 12:01:12;;;;;;;19.75;13.18;;;22.50;78.80;;;;;;4953533;28;20047;-78
2023/08/25 12:03:42;;;;;;;18.10;11.93;;;22.60;78.70;;;;;;4962573;28;20142;-77
2023/08/25 12:06:12;;;;;;;19.33;13.63;;;22.50;78.70;;;;;;4953200;28;20131;-78
2023/08/25 12:08:42;;;;;;;20.05;13.90;;;22.60;78.80;;;;;;4969481;28;20415;-77
2023/08/25 12:11:11;;;;;;;19.87;13.13;;;22.60;78.50;;;;;;4960750;28;20138;-77
2023/08/25 12:13:44;;;;;;;50.10;16.63;;;22.60;78.50;;;;;;4965829;28;20039;-78
2023/08/25 12:16:13;;;;;;;26.35;12.35;;;22.60;78.60;;;;;;4963190;28;20525;-78
2023/08/25 12:18:42;;;;;;;18.48;11.05;;;22.60;78.70;;;;;;4962361;28;20546;-78
2023/08/25 12:21:11;;;;;;;14.90;9.30;;;22.60;78.70;;;;;;4970611;28;20166;-77
2023/08/25 12:23:40;;;;;;;18.63;11.47;;;22.60;78.50;;;;;;4967520;28;20055;-78
2023/08/25 12:26:11;;;;;;;16.42;11.15;;;22.60;78.60;;;;;;4954888;28;20047;-78
2023/08/25 12:28:38;;;;;;;18.58;10.20;;;22.60;78.50;;;;;;4970208;28;20252;-78
2023/08/25 12:31:06;;;;;;;16.98;10.82;;;22.60;78.40;;;;;;4969874;28;20106;-77
2023/08/25 12:33:34;;;;;;;16.13;11.07;;;22.70;78.30;;;;;;4953280;28;20497;-78
2023/08/25 12:36:01;;;;;;;15.17;9.97;;;22.70;78.10;;;;;;4961498;28;20474;-78